메인 페이지
METAR-TAF:

METAR-TAF

공항 :

Pirassununga, 상파울루, 브라질

위도: 21-59S, 경도: 047-20W, 고도: 597m

현재 날씨관측

예보는 45분 전, 09:00시(UTC)에 발표되었습니다.
2kt
온도 21°C
습도 94%
기압 1016 hPa
시정 10km 이상
고도 300ft 상공 구름 조금
고도 8000ft 상공 구름 많음
시계 내 소나기

METAR: SBYS 010900Z 08002KT 9999 VCSH FEW003 BKN080 21/20 Q1016

시각: 07:45 (09:45 UTC)

예보

예보는 6 시간 45분 전, 03:00시(UTC)에 발표되었습니다.
예보 대상 시간: 01일 06시부터 01일 18시까지 (UTC)
북북서5kt
시정 10km 이상
고도 2500ft 상공 구름 보통
확률 30%
01일 06시부터 01일 09시까지 (UTC)
시정: 5000m
고도 700ft 상공 구름 많음
박무
전환 중
01일 12시부터 01일 14시까지 (UTC)
고도 3000ft 상공 구름 많음
고도 4000ft 상공 구름 조금, 타워링 적운.
확률 40%
01일 16시부터 01일 18시까지 (UTC)
시정: 8000m
고도 3500ft 상공 구름 보통
고도 4000ft 상공 구름 조금, 타워링 적운.
소나기

TAF: SBYS 010300Z 0106/0118 34005KT 9999 SCT025 TN20/0106Z TX26/0117Z PROB30 0106/0109 5000 BR BKN007 BECMG 0112/0114 BKN030 FEW040TCU PROB40 0116/0118 8000 SHRA SCT035 FEW040TCU RMK PFP

4,000개 이상의 공항 관측 자료 및 예보 (METAR 및 TAF 보고).

지도상에서 검색 가능한 기상관측소가 노란 점과 빨간 점으로 표시되어 있습니다.

기상관측소 명을 보려면 표시 위로 마우스를 이동하세요.

날씨 관측과 예보를 보려면 클릭하세요.

지도 변경 : 확대하려면 엑스 표시가 있는 녹색 버튼, 축소하려면 빼기 표시가 있는 녹색 버튼, 다음 페이지의 지도를 보려면 녹색 화살표를 클릭하세요.


METAR-TAF: